Amunt
Inicio > meteoXarxa
Fes-te'n soci

METEOXARXA

Atzeneta del Maestrat
Ubicació poble
Comarca l′Alcalatén
Altitud (msnm)
Posició geogràfica 40° 13' 41.88" N, 00° 10' 6.96" W
Model Instrumentació oficial
Presa de dades
Font de les dades AEMET
Estadístiques. Resum
Data Temperatura (ºC) Humitat (%) Pressió (hPa) Vent (km/h) Precipit. (mm)
Mínima Mitjana Màxima Mínima Mitjana Màxima Mínima Mitjana Màxima Predom. Mitjana Ràfega màxima Total Dies de pluja
Mínima Mitjana Màxima Mínima Mitjana Màxima
Últimes dades diàries
18-01-2017 -1,6     2,5     6,7 31,0 0,0  
17-01-2017 0,6     6,1     11,5 56,0 0,0  
16-01-2017 8,6     11,9     15,1 82,0 0,0  
15-01-2017 1,0     6,6     12,1 67,0 0,0  
14-01-2017 1,3     5,6     9,9 57,0 0,0  
13-01-2017 2,5     8,8     15,0 59,0 0,0  
12-01-2017 2,3     10,5     18,8 28,0 0,0  
11-01-2017 3,8     8,9     14,0 75,0 0,0  
10-01-2017 -0,3     6,7     13,7 107,0 0,0  
09-01-2017 0,3     7,2     14,0 24,0 0,0  
08-01-2017 -2,3     6,9     16,0 14,0 0,0  
07-01-2017 -2,3     5,5     13,3 14,0 0,0  
06-01-2017 -2,3     5,5     13,4 21,0 0,0  
05-01-2017 0,5     9,1     17,8 31,0 0,0  
04-01-2017 1,1     9,5     17,9 22,0 0,0  
03-01-2017 0,6     7,9     15,2 16,0 0,0  
02-01-2017 -1,2     4,9     11,0 13,0 0,0  
01-01-2017 -2,0     5,7     13,4 21,0 0,2  
31-12-2016 1,3     7,5     13,6 22,0 0,0  
30-12-2016 -3,0     4,9     12,8 13,0 0,0  
29-12-2016 -2,6     7,7     18,0 10,0 0,0  
28-12-2016 -0,3     8,0     16,2 17,0 0,0  
27-12-2016 1,4     8,3     15,2 12,0 0,0  
26-12-2016 2,5     10,1     17,6 12,0 0,0  
25-12-2016 2,3     10,3     18,3 23,0 0,0  
24-12-2016 4,1     10,4     16,7 20,0 0,0  
23-12-2016 3,8     11,0     18,1 19,0 0,0  
22-12-2016 2,2     9,5     16,8 12,0 0,0  
21-12-2016 5,4     10,1     14,8 34,0 0,0  
20-12-2016 7,6     11,2     14,8 50,0 0,0  
19-12-2016 6,4     7,5     8,7 40,0 5,6  
18-12-2016 6,7     7,9     9,2 37,0 2,6  
Dades del mes en curs (actualitzades fins l'últim dia disponible)
01/2017 -2,3 0,6 8,6 7,2 6,7 13,8 18,8   107,0 0,2  
Últimes dades mensuals
12/2016 -3,0 3,8 11,4 9,4 8,7 15,0 18,3 55,0 69,0 9
11/2016 -0,7 5,8 12,9 11,5 11,3 17,3 24,3 71,0 81,0 10
10/2016 4,7 11,4 15,4 17,3 16,8 23,3 28,5 37,0 19,4 8
09/2016 8,4 14,0 20,0 21,2 22,9 28,4 38,2 60,0 27,4 7
08/2016 10,6 16,2 21,2 23,7 24,6 31,3 34,7 49,0 19,6 4
07/2016 11,9 16,3 19,6 24,3 27,6 32,3 36,2 41,0 0,8 2
06/2016 8,6 13,6 19,4 21,5 24,8 29,4 33,3 49,0 4,2 7
05/2016 1,6 9,4 13,6 15,9 14,0 22,4 29,1 73,0 53,6 8
04/2016 1,2 7,2 11,4 13,5 12,7 19,8 27,1 76,0 31,4 11
03/2016 -2,3 4,2 8,5 10,4 8,3 16,5 24,2 93,0 36,0 9
02/2016 -3,2 3,7 12,4 10,5 8,5 17,3 23,5 95,0 7,2 7
01/2016 -1,2 3,2 7,0 9,7 12,1 16,2 20,6 58,0 0,2 1
12/2015 -0,1 3,0 9,4 9,8 14,6 16,7 20,5 26,0 1,0 5
Dades de l'any en curs (actualitzades fins l'últim dia disponible)
2017 -2,3 0,6 8,6 7,2 6,7 13,8 18,8   107,0 0,2  
Últimes dades anuals
2013 -5,1 8,2 13,5 14,9 19,5 21,6 34,9 122,0 408,2 76